Latest Weather Observations for Longreach

IDQ60801

Issued at 9:02 am EST Monday 2 May 2016 (issued every 30 minutes, with the page automatically refreshed every 10 minutes)

About weather observations | Map of weather stations | Latest weather observations for QLD | Other Formats
Station Details ID: 036031 Name: LONGREACH AERO Lat: -23.44 Lon: 144.28 Height: 192.2 m
Data from the previous 72 hours. | See also: Recent months at Longreach
Date/Time
EST
Temp
°C
App
Temp
°C
Dew
Point
Rel
Hum
%
Delta-T
°C
Wind Press
QNH
hPa
Press
MSL
hPa
Rain
since 9 am
mm
Dir
 
Spd
km/h
Gust
km/h
Spd
kts
Gust
kts
02/08:30am 26.3 23.9 11.5 39 8.5 NNE 15 20 8 11 1015.4 1014.8 0.0
02/08:00am 24.7 29.6 24.6 99 0.1 NE 7 11 4 6 1015.4 1014.8 0.0
02/07:30am 23.6 28.4 23.5 99 0.1 ENE 4 6 2 3 1015.2 1014.6 0.0
02/07:00am 21.9 25.1 21.7 99 0.1 NNE 7 9 4 5 1014.6 1014.1 0.0
02/06:30am 21.8 24.7 21.8 100 0.0 NNE 9 11 5 6 1014.2 1013.7 0.0
02/06:00am 22.1 25.6 22.1 100 0.0 NNE 7 9 4 5 1013.8 1013.3 0.0
02/05:30am 22.1 25.2 22.1 100 0.0 NE 9 11 5 6 1013.6 1013.1 0.0
02/05:00am 22.9 26.4 22.9 100 0.0 NE 9 13 5 7 1013.5 1013.0 0.0
02/04:30am 23.0 26.2 23.0 100 0.0 NE 11 13 6 7 1013.4 1012.9 0.0
02/04:00am 23.1 27.1 23.1 100 0.0 NE 7 9 4 5 1013.3 1012.8 0.0
02/03:30am 23.5 27.7 23.5 100 0.0 NE 7 7 4 4 1013.2 1012.6 0.0
02/03:00am 22.2 25.7 22.2 100 0.0 NE 7 7 4 4 1013.2 1012.6 0.0
02/02:30am 22.2 25.9 22.2 100 0.0 NNE 6 6 3 3 1013.4 1012.9 0.0
02/02:00am 22.6 27.7 22.6 100 0.0 CALM 0 2 0 1 1013.5 1013.0 0.0
02/01:30am 23.0 27.8 22.9 99 0.1 NE 2 4 1 2 1013.7 1013.2 0.0
02/01:00am 23.0 27.5 23.0 100 0.0 NNE 4 4 2 2 1013.9 1013.4 0.0
02/12:30am 23.9 28.6 23.9 100 0.0 NE 6 6 3 3 1014.2 1013.7 0.0
02/12:00am 24.1 29.2 24.0 99 0.1 NNE 4 6 2 3 1014.4 1013.9 0.0
 
Date/Time
EST
Temp
°C
App
Temp
°C
Dew
Point
Rel
Hum
%
Delta-T
°C
Wind Press
QNH
hPa
Press
MSL
hPa
Rain
since 9 am
mm
Dir
 
Spd
km/h
Gust
km/h
Spd
kts
Gust
kts
01/11:30pm 24.7 29.8 24.0 96 0.5 NNE 4 6 2 3 1014.7 1014.2 0.0
01/11:00pm 26.1 25.6 12.6 43 7.9 NE 7 7 4 4 1014.8 1014.3 0.0
01/10:30pm 25.7 25.3 11.1 40 8.3 NE 4 6 2 3 1015.1 1014.5 0.0
01/10:00pm 26.6 26.2 11.0 37 8.9 ENE 4 7 2 4 1015.2 1014.6 0.0
01/09:30pm 27.4 25.6 11.0 36 9.4 E 11 15 6 8 1015.3 1014.7 0.0
01/09:00pm 27.3 25.9 10.8 35 9.4 ESE 9 11 5 6 1015.2 1014.6 0.0
01/08:30pm 27.2 24.9 10.4 35 9.5 ENE 13 15 7 8 1014.9 1014.4 0.0
01/08:00pm 28.5 27.2 11.4 34 9.9 E 9 13 5 7 1014.8 1014.3 0.0
01/07:30pm 29.4 28.1 11.3 32 10.5 E 9 9 5 5 1014.5 1014.0 0.0
01/07:00pm 29.9 29.7 13.0 35 10.1 ESE 6 7 3 4 1014.1 1013.6 0.0
01/06:30pm 31.0 30.9 13.2 33 10.7 ESE 6 6 3 3 1013.8 1013.3 0.0
01/06:00pm 32.4 32.6 13.2 31 11.6 SE 4 6 2 3 1013.7 1013.2 0.0
01/05:30pm 33.8 33.3 12.1 26 13.0 ESE 6 9 3 5 1013.4 1012.9 0.0
01/05:00pm 34.4 32.7 11.3 24 13.7 E 11 15 6 8 1013.2 1012.6 0.0
01/04:30pm 34.5 33.2 11.2 24 13.8 SE 9 20 5 11 1013.1 1012.5 0.0
01/04:00pm 35.0 34.4 12.3 25 13.7 ESE 7 15 4 8 1013.0 1012.4 0.0
01/03:30pm 35.3 35.4 12.8 25 13.7 NNE 4 9 2 5 1013.0 1012.4 0.0
01/03:00pm 34.7 33.9 11.8 25 13.7 SE 7 13 4 7 1013.0 1012.4 0.0
01/02:30pm 33.7 33.9 13.1 28 12.5 NE 4 6 2 3 1013.2 1012.6 0.0
01/02:00pm 33.8 33.5 12.6 27 12.8 SE 6 11 3 6 1013.5 1013.0 0.0
01/01:30pm 33.9 33.4 13.7 29 12.4 NNW 9 20 5 11 1013.8 1013.3 0.0
01/01:00pm 33.6 33.4 13.0 28 12.5 NNW 6 11 3 6 1014.4 1013.9 0.0
01/12:30pm 33.9 33.5 14.1 30 12.2 N 9 19 5 10 1014.7 1014.2 0.0
01/12:00pm 33.4 32.1 14.7 32 11.6 NNE 15 24 8 13 1015.4 1014.8 0.0
01/11:30am 32.7 31.6 15.4 35 10.8 NNE 15 26 8 14 1015.9 1015.3 0.0
01/11:00am 31.7 30.4 15.9 38 9.9 NNE 17 24 9 13 1016.5 1015.9 0.0
01/10:30am 31.3 29.8 16.4 40 9.4 NNE 19 26 10 14 1016.8 1016.2 0.0
01/10:00am 30.0 28.9 16.3 43 8.6 N 17 22 9 12 1017.1 1016.5 0.0
01/09:30am 28.9 26.8 16.1 46 8.0 N 22 26 12 14 1017.1 1016.2 0.0
01/09:00am 27.8 26.5 15.8 48 7.4 NNE 17 22 9 12 1017.2 1016.3 0.0
01/08:30am 26.3 24.2 15.3 50 6.7 NNE 20 28 11 15 1016.9 1016.0 0.0
01/08:00am 25.4 23.4 15.0 52 6.3 NNE 19 22 10 12 1016.8 1015.9 0.0
01/07:30am 24.3 23.6 14.2 53 6.0 NE 11 19 6 10 1016.4 1015.5 0.0
01/07:00am 22.7 22.1 13.4 55 5.4 NE 9 13 5 7 1016.1 1015.2 0.0
01/06:30am 22.5 21.4 13.0 55 5.5 NE 11 13 6 7 1015.9 1015.0 0.0
01/06:00am 22.8 21.6 12.7 53 5.8 NE 11 13 6 7 1015.8 1014.9 0.0
01/05:30am 22.1 21.6 12.5 54 5.5 NE 7 11 4 6 1015.6 1014.7 0.0
01/05:00am 22.7 21.5 12.8 53 5.7 NE 11 13 6 7 1015.3 1014.3 0.0
01/04:30am 22.8 22.3 12.7 53 5.8 NNE 7 9 4 5 1015.2 1014.2 0.0
01/04:00am 23.5 23.0 12.8 51 6.2 NE 7 9 4 5 1014.9 1014.0 0.0
01/03:30am 23.7 23.2 12.8 50 6.3 ENE 7 9 4 5 1014.9 1014.0 0.0
01/03:00am 23.0 22.3 11.9 49 6.3 E 7 7 4 4 1015.1 1014.1 0.0
01/02:30am 23.2 22.5 12.0 49 6.4 E 7 9 4 5 1015.2 1014.2 0.0
01/02:00am 24.2 23.7 12.0 46 7.0 ENE 6 7 3 4 1015.4 1014.4 0.0
01/01:30am 25.1 23.9 11.6 42 7.7 E 9 11 5 6 1015.6 1014.7 0.0
01/01:00am 26.0 24.6 12.2 42 8.0 ENE 11 13 6 7 1015.6 1014.7 0.0
01/12:30am 26.3 24.8 11.9 40 8.3 ENE 11 13 6 7 1015.5 1014.5 0.0
01/12:00am 26.8 24.5 11.7 39 8.7 ENE 15 19 8 10 1015.6 1014.7 0.0
 
Date/Time
EST
Temp
°C
App
Temp
°C
Dew
Point
Rel
Hum
%
Delta-T
°C
Wind Press
QNH
hPa
Press
MSL
hPa
Rain
since 9 am
mm
Dir
 
Spd
km/h
Gust
km/h
Spd
kts
Gust
kts
30/11:30pm 27.5 24.8 11.6 37 9.2 E 17 20 9 11 1015.8 1014.9 0.0
30/11:00pm 27.4 24.6 11.2 36 9.3 E 17 20 9 11 1015.8 1014.9 0.0
30/10:30pm 26.9 24.7 10.7 36 9.2 E 13 17 7 9 1015.8 1014.9 0.0
30/10:00pm 26.0 23.3 10.3 37 8.8 E 15 17 8 9 1015.9 1015.0 0.0
30/09:30pm 26.2 23.9 10.6 37 8.8 ESE 13 15 7 8 1015.9 1015.0 0.0
30/09:00pm 26.4 24.6 10.7 37 8.9 ESE 11 13 6 7 1015.9 1015.0 0.0
30/08:30pm 26.9 24.7 10.9 36 9.1 ESE 13 15 7 8 1015.7 1014.8 0.0
30/08:00pm 27.3 25.2 11.0 36 9.3 ESE 13 15 7 8 1015.4 1014.4 0.0
30/07:30pm 28.3 27.2 11.8 36 9.6 ESE 9 11 5 6 1015.1 1014.1 0.0
30/07:00pm 28.9 27.6 11.3 33 10.2 ESE 9 11 5 6 1014.7 1013.8 0.0
30/06:30pm 30.2 28.9 11.3 31 11.0 ESE 9 11 5 6 1014.4 1013.5 0.0
30/06:00pm 31.1 30.5 12.2 31 11.2 E 7 9 4 5 1014.1 1013.2 0.0
30/05:30pm 32.3 - 12.1 29 12.0 - - - - - 1014.0 1013.1 0.0
30/05:00pm 32.5 31.6 12.5 29 12.0 ENE 9 15 5 8 1013.8 1012.9 0.0
30/04:30pm 32.7 31.7 12.3 28 12.2 NE 9 19 5 10 1013.8 1012.9 0.0
30/04:00pm 32.7 32.9 13.2 30 11.8 NNE 4 7 2 4 1013.8 1012.9 0.0
30/03:30pm 32.5 32.2 13.4 31 11.6 E 7 15 4 8 1013.7 1012.8 0.0
30/03:00pm 32.5 32.0 13.8 32 11.4 N 9 19 5 10 1013.8 1012.9 0.0
30/02:30pm 33.5 34.2 15.5 34 11.3 N 6 17 3 9 1014.0 1013.1 0.0
30/02:00pm 32.8 32.1 14.3 32 11.4 NNE 11 22 6 12 1014.2 1013.3 0.0
30/01:30pm 32.2 31.5 15.4 36 10.5 N 13 20 7 11 1014.8 1013.9 0.0
30/01:00pm 31.8 31.5 16.5 39 9.7 NNE 13 24 7 13 1015.3 1014.3 0.0
30/12:30pm 31.8 31.4 16.3 39 9.8 NNE 13 22 7 12 1016.0 1015.1 0.0
30/12:00pm 30.9 30.1 17.1 43 8.8 NNE 17 26 9 14 1016.5 1015.6 0.0
30/11:30am 30.9 29.6 16.9 43 8.9 NNE 19 26 10 14 1017.1 1016.2 0.0
30/11:00am 30.2 29.0 17.5 46 8.1 NNE 20 32 11 17 1017.6 1016.7 0.0
30/10:30am 29.3 28.2 17.7 49 7.4 NNE 20 28 11 15 1018.0 1017.1 0.0
30/10:00am 29.0 27.9 17.7 50 7.2 NE 20 28 11 15 1018.3 1017.4 0.0
30/09:30am 28.0 25.7 17.6 53 6.6 NE 26 35 14 19 1018.1 1017.2 0.0
30/09:00am 27.5 24.0 17.4 54 6.4 NNE 32 41 17 22 1018.1 1017.2 0.0
30/08:30am 26.2 22.9 17.1 57 5.7 NE 30 37 16 20 1018.0 1017.1 0.0
30/08:00am 25.1 23.2 16.7 59 5.2 NE 22 30 12 16 1017.9 1017.0 0.0
30/07:30am 24.1 22.6 16.3 61 4.8 NE 19 22 10 12 1017.6 1016.7 0.0
30/07:00am 22.8 22.4 16.1 66 4.1 ENE 13 17 7 9 1017.5 1016.6 0.0
30/06:30am 22.5 22.1 16.1 67 3.9 NE 13 15 7 8 1017.1 1016.2 0.0
30/06:00am 22.3 21.8 15.9 67 3.9 NE 13 15 7 8 1016.7 1015.8 0.0
30/05:30am 22.4 21.7 15.4 64 4.2 NE 13 17 7 9 1016.3 1015.4 0.0
30/05:00am 22.5 21.8 15.4 64 4.3 NE 13 17 7 9 1016.1 1015.2 0.0
30/04:30am 22.7 21.9 15.2 62 4.5 NE 13 15 7 8 1016.1 1015.2 0.0
30/04:00am 22.9 22.8 14.9 60 4.8 NE 9 11 5 6 1016.1 1015.2 0.0
30/03:30am 23.2 23.1 15.0 60 4.9 NE 9 11 5 6 1016.1 1015.2 0.0
30/03:00am 23.8 23.0 15.0 57 5.3 NE 13 15 7 8 1016.0 1015.1 0.0
30/02:30am 24.1 22.8 14.8 56 5.6 NE 15 17 8 9 1016.2 1015.3 0.0
30/02:00am 24.3 22.9 14.6 54 5.8 NE 15 17 8 9 1016.1 1015.2 0.0
30/01:30am 24.8 23.1 14.6 53 6.1 NE 17 20 9 11 1016.2 1015.3 0.0
30/01:00am 25.1 23.0 14.6 52 6.3 ENE 19 24 10 13 1016.3 1015.4 0.0
30/12:30am 25.5 23.3 14.3 50 6.7 ENE 19 26 10 14 1016.5 1015.6 0.0
30/12:00am 25.9 22.6 14.0 47 7.1 ENE 24 32 13 17 1016.7 1015.8 0.0
 
Date/Time
EST
Temp
°C
App
Temp
°C
Dew
Point
Rel
Hum
%
Delta-T
°C
Wind Press
QNH
hPa
Press
MSL
hPa
Rain
since 9 am
mm
Dir
 
Spd
km/h
Gust
km/h
Spd
kts
Gust
kts
29/11:30pm 26.1 24.8 13.6 46 7.4 ENE 13 22 7 12 1016.9 1016.0 0.0
29/11:00pm 26.1 25.5 13.4 45 7.5 NE 9 13 5 7 1017.0 1016.1 0.0
29/10:30pm 25.2 24.8 12.9 46 7.2 ENE 7 7 4 4 1017.1 1016.2 0.0
29/10:00pm 25.4 24.4 12.3 44 7.6 E 9 11 5 6 1017.2 1016.3 0.0
29/09:30pm 25.7 25.3 12.4 43 7.7 E 6 7 3 4 1017.1 1016.2 0.0
29/09:00pm 25.7 24.8 12.7 44 7.6 E 9 11 5 6 1017.0 1016.1 0.0
29/08:30pm 26.3 26.0 12.6 42 8.0 ESE 6 7 3 4 1016.9 1016.0 0.0
29/08:00pm 26.9 27.1 13.0 42 8.2 E 4 6 2 3 1016.5 1015.6 0.0
29/07:30pm 27.8 28.2 13.6 41 8.5 E 4 4 2 2 1016.1 1015.2 0.0
29/07:00pm 28.6 29.4 13.8 40 8.9 E 2 4 1 2 1015.9 1015.0 0.0
29/06:30pm 28.9 30.1 13.8 39 9.1 CALM 0 0 0 0 1015.5 1014.5 0.0
29/06:00pm 30.2 31.3 14.5 38 9.6 ENE 2 6 1 3 1015.2 1014.2 0.0
29/05:30pm 31.2 31.9 13.5 34 10.7 NNE 2 6 1 3 1014.9 1014.0 0.0
29/05:00pm 31.5 31.1 13.0 32 11.1 NE 7 11 4 6 1014.8 1013.9 0.0
29/04:30pm 32.4 30.3 12.3 29 12.0 NNE 15 19 8 10 1014.4 1013.5 0.0
29/04:00pm 32.3 31.6 13.3 31 11.5 N 9 17 5 9 1014.3 1013.4 0.0
29/03:30pm 31.6 30.3 12.5 31 11.4 N 11 17 6 9 1014.3 1013.4 0.0
29/03:00pm 32.5 31.1 13.4 31 11.6 N 13 17 7 9 1014.2 1013.3 0.0
29/02:30pm 32.3 31.7 13.5 32 11.4 N 9 17 5 9 1014.3 1013.4 0.0
29/02:00pm 31.8 30.4 14.4 34 10.7 NNE 15 24 8 13 1014.6 1013.7 0.0
29/01:30pm 31.4 29.5 14.2 35 10.5 NE 17 28 9 15 1015.1 1014.1 0.0
29/01:00pm 30.7 29.6 15.4 39 9.5 NNE 15 24 8 13 1015.7 1014.8 0.0
29/12:30pm 31.0 29.2 15.4 38 9.7 NNE 19 33 10 18 1016.2 1015.3 0.0
29/12:00pm 30.7 29.1 16.0 41 9.2 NNE 19 28 10 15 1016.9 1016.0 0.0
29/11:30am 29.5 27.2 15.8 43 8.5 NE 22 32 12 17 1017.6 1016.7 0.0
29/11:00am 29.3 27.2 16.2 45 8.2 NNE 22 30 12 16 1018.5 1017.6 0.0
29/10:30am 28.1 25.2 16.2 48 7.4 NE 26 33 14 18 1018.8 1017.9 0.0
29/10:00am 27.3 24.1 16.2 50 6.9 NE 28 37 15 20 1019.2 1018.3 0.0
29/09:30am 26.7 23.8 16.0 52 6.6 NE 26 37 14 20 1019.4 1018.5 0.0

Other Formats:

Comma delimited format used in spreadsheet applications
http://www.bom.gov.au/fwo/IDQ60801/IDQ60801.94346.axf

JavaScript Object Notation format (JSON) in row-major order
http://www.bom.gov.au/fwo/IDQ60801/IDQ60801.94346.json